Igo, California
Current Conditions -  °F | °C
As of 3:53 PM on Saturday 22 Nov 2014 (Local Time) from KRDD Reporting Station
Clear Clear  
Wind Chill: 60°   Ceiling: Unl
Heat Index: 60°   Visibility: 10mi
Dew Point: 39°   Wind: 12mph
Humidity: 46%   Direction: 320°NW
Pressure: 30.1"   Gusts: NA
Location:  40.51°N, 122.54°W
Report Text: KRDD 222353Z 32010KT 10SM CLR 16/04 A3010 RMK AO2 SLP191 60001 T01560039 10172 20122 53014
Loading
Personal Weather Stations






























Interactive Weather Map New forecast layout! Learn more

10-Day Weather Forecast

Advertisements
Track Severe Weather on mobile